Time;durP1;ratioP1;P1;durP2;ratioP2;P2;SDS_P1;SDS_P2;PMS_P1;PMS_P2;Temp;Humidity;BMP_temperature;BMP_pressure;BME280_temperature;BME280_humidity;BME280_pressure;Samples;Min_cycle;Max_cycle;Signal;HPM_P1;HPM_P2
2021/04/04 00:00:19;;;;;;;27.45;5.82;;;;;;;4.57;65.32;102357.22;5009367;28;20058;-67
2021/04/04 00:02:45;;;;;;;25.00;4.65;;;;;;;4.50;66.01;102356.16;5008436;28;20077;-66
2021/04/04 00:05:12;;;;;;;21.55;4.53;;;;;;;4.47;65.74;102361.19;5013155;28;20038;-66
2021/04/04 00:07:38;;;;;;;23.67;4.20;;;;;;;4.42;66.60;102363.63;5010789;28;20057;-64
2021/04/04 00:10:07;;;;;;;19.98;4.85;;;;;;;4.42;65.96;102355.03;5020663;28;20049;-66
2021/04/04 00:12:34;;;;;;;23.58;4.57;;;;;;;4.38;66.49;102361.78;5010829;28;20048;-66
2021/04/04 00:15:00;;;;;;;32.55;5.40;;;;;;;4.42;65.91;102349.88;5015556;28;20507;-68
2021/04/04 00:17:26;;;;;;;24.70;5.93;;;;;;;4.38;66.10;102348.91;4997305;28;20047;-68
2021/04/04 00:19:52;;;;;;;18.52;4.60;;;;;;;4.36;66.66;102353.13;5012447;28;20050;-65
2021/04/04 00:22:18;;;;;;;20.58;5.28;;;;;;;4.26;66.66;102354.53;5010376;28;20045;-66
2021/04/04 00:24:44;;;;;;;26.25;3.80;;;;;;;4.29;67.24;102346.03;5012354;28;20061;-66
2021/04/04 00:27:10;;;;;;;21.23;4.78;;;;;;;4.25;67.10;102347.63;5013722;28;20097;-64
2021/04/04 00:29:36;;;;;;;18.85;4.70;;;;;;;4.16;67.57;102348.22;5009647;28;20066;-67
2021/04/04 00:32:03;;;;;;;25.27;4.43;;;;;;;4.16;67.09;102340.47;5021499;28;20455;-65
2021/04/04 00:34:29;;;;;;;26.65;5.03;;;;;;;4.17;67.79;102338.75;5015466;28;20499;-68
2021/04/04 00:36:55;;;;;;;20.77;4.43;;;;;;;4.17;67.79;102326.78;5010437;28;20046;-65
2021/04/04 00:39:21;;;;;;;20.40;5.40;;;;;;;4.19;67.18;102327.69;5009512;28;20050;-66
2021/04/04 00:41:47;;;;;;;20.60;3.92;;;;;;;4.24;67.71;102329.53;5010797;28;20045;-66
2021/04/04 00:44:14;;;;;;;30.65;5.85;;;;;;;4.26;66.75;102340.78;5011899;28;20065;-65
2021/04/04 00:46:40;;;;;;;21.13;4.47;;;;;;;4.30;66.72;102328.06;5002383;28;20053;-67
2021/04/04 00:49:06;;;;;;;23.50;4.47;;;;;;;4.30;67.42;102328.06;5010251;28;20411;-67
2021/04/04 00:51:33;;;;;;;25.77;6.63;;;;;;;4.29;67.18;102317.72;5018966;28;20617;-67
2021/04/04 00:54:00;;;;;;;20.40;4.35;;;;;;;4.26;66.86;102317.59;5013596;28;20050;-67
2021/04/04 00:56:27;;;;;;;23.48;5.28;;;;;;;4.28;67.34;102319.38;5000398;28;20042;-67
2021/04/04 00:58:54;;;;;;;21.90;4.53;;;;;;;4.28;67.19;102318.53;5011463;28;20046;-67
2021/04/04 01:01:21;;;;;;;23.67;4.20;;;;;;;4.29;67.46;102320.28;5010198;28;20042;-67
2021/04/04 01:03:48;;;;;;;25.73;5.18;;;;;;;4.31;67.44;102327.22;5016136;28;20418;-68
2021/04/04 01:06:14;;;;;;;17.13;4.50;;;;;;;4.35;67.37;102321.34;5012559;28;20038;-66
2021/04/04 01:08:40;;;;;;;18.75;4.40;;;;;;;4.35;66.68;102318.75;5012641;28;20529;-67
2021/04/04 01:11:07;;;;;;;16.35;4.88;;;;;;;4.35;66.91;102321.34;5010625;28;20052;-66
2021/04/04 01:13:39;;;;;;;23.85;5.93;;;;;;;4.42;66.85;102324.13;5003372;28;20057;-66
2021/04/04 01:16:10;;;;;;;19.70;4.90;;;;;;;4.42;67.12;102324.13;4996943;28;20046;-67
2021/04/04 01:18:41;;;;;;;28.63;5.55;;;;;;;4.41;66.64;102327.53;5016473;28;20053;-67
2021/04/04 01:21:13;;;;;;;23.42;5.68;;;;;;;4.39;67.52;102334.31;5013317;28;20062;-68
2021/04/04 01:24:01;;;;;;;25.38;6.72;;;;;;;4.41;66.44;102336.13;5011279;28;20060;-67
2021/04/04 01:26:35;;;;;;;24.48;5.05;;;;;;;4.42;67.27;102335.28;4992243;28;20530;-67
2021/04/04 01:29:05;;;;;;;26.47;5.07;;;;;;;4.41;67.05;102336.13;5002309;28;20053;-65
2021/04/04 01:31:33;;;;;;;23.88;4.43;;;;;;;4.42;66.95;102332.72;5010584;28;20057;-65
2021/04/04 01:33:59;;;;;;;25.00;4.78;;;;;;;4.44;66.98;102330.22;5014526;28;20054;-67
2021/04/04 01:36:27;;;;;;;20.50;4.78;;;;;;;4.47;66.61;102330.28;5011942;28;20054;-67
2021/04/04 01:38:54;;;;;;;19.50;5.07;;;;;;;4.43;67.28;102331.88;5009395;28;20056;-68
2021/04/04 01:41:25;;;;;;;20.60;4.93;;;;;;;4.40;66.89;102336.06;5017350;28;20384;-66
2021/04/04 01:43:57;;;;;;;21.50;4.70;;;;;;;4.41;67.63;102335.25;5016989;28;20064;-68
2021/04/04 01:46:24;;;;;;;20.35;4.50;;;;;;;4.48;67.52;102332.03;5011139;28;20050;-67
2021/04/04 01:48:51;;;;;;;27.27;5.03;;;;;;;4.41;68.25;102332.69;5012226;28;20045;-66
2021/04/04 01:51:17;;;;;;;36.10;5.95;;;;;;;4.42;68.32;102327.56;5019975;28;20045;-66
2021/04/04 01:53:44;;;;;;;20.88;5.45;;;;;;;4.48;67.79;102326.88;5008120;28;20495;-67
2021/04/04 01:56:10;;;;;;;19.77;4.75;;;;;;;4.49;68.23;102320.91;5011727;28;20406;-67
2021/04/04 01:58:39;;;;;;;27.17;5.43;;;;;;;4.46;67.61;102323.38;5016193;28;22409;-68
2021/04/04 02:01:06;;;;;;;23.40;5.53;;;;;;;4.48;67.92;102311.44;5003024;28;20511;-67
2021/04/04 02:03:33;;;;;;;24.60;5.38;;;;;;;4.48;67.59;102320.03;5012891;28;20049;-69
2021/04/04 02:06:01;;;;;;;28.10;5.07;;;;;;;4.49;67.39;102316.63;5028331;28;20103;-67
2021/04/04 02:08:28;;;;;;;21.35;4.68;;;;;;;4.47;67.92;102309.66;5018345;28;20133;-67
2021/04/04 02:10:55;;;;;;;21.73;4.80;;;;;;;4.47;68.28;102310.56;5010027;28;20054;-66
2021/04/04 02:13:23;;;;;;;30.48;6.30;;;;;;;4.46;67.86;102310.50;5012079;28;20057;-67
2021/04/04 02:15:49;;;;;;;27.50;6.45;;;;;;;4.43;68.46;102300.97;4998471;28;20507;-66
2021/04/04 02:18:15;;;;;;;20.55;5.03;;;;;;;4.48;68.19;102312.31;5000844;28;20053;-68
2021/04/04 02:20:44;;;;;;;22.33;4.63;;;;;;;4.50;68.22;102304.63;5013209;28;20045;-68
2021/04/04 02:23:11;;;;;;;29.95;5.35;;;;;;;4.53;68.15;102302.16;5010677;28;20128;-66
2021/04/04 02:25:38;;;;;;;28.65;6.07;;;;;;;4.54;68.51;102301.31;5022316;28;20503;-68
2021/04/04 02:28:10;;;;;;;20.05;4.55;;;;;;;4.54;68.37;102301.31;5006145;28;20100;-66
2021/04/04 02:30:37;;;;;;;23.88;6.05;;;;;;;4.48;68.62;102304.59;5002679;28;20144;-69
2021/04/04 02:33:11;;;;;;;21.70;5.80;;;;;;;4.48;68.97;102301.13;5017511;28;20049;-66
2021/04/04 02:35:38;;;;;;;;;;;;;;;4.49;69.04;102290.84;5014255;28;20572;-67
2021/04/04 02:38:10;;;;;;;29.35;5.47;;;;;;;4.43;69.29;102297.53;4997296;28;19922;-66
2021/04/04 02:40:38;;;;;;;18.17;4.38;;;;;;;4.45;69.42;102301.00;5003830;28;20089;-67
2021/04/04 02:43:04;;;;;;;17.48;5.05;;;;;;;4.44;69.78;102307.88;5015123;28;20053;-66
2021/04/04 02:45:31;;;;;;;23.50;5.53;;;;;;;4.41;69.25;102302.63;5000730;28;20590;-67
2021/04/04 02:47:59;;;;;;;24.20;4.63;;;;;;;4.45;69.44;102303.59;5015330;28;20050;-68
2021/04/04 02:50:29;;;;;;;20.15;4.50;;;;;;;4.40;69.67;102290.56;5014700;28;20054;-68
2021/04/04 02:52:59;;;;;;;21.02;5.05;;;;;;;4.42;70.20;102296.66;5012970;28;20046;-68
2021/04/04 02:55:28;;;;;;;22.60;5.38;;;;;;;4.47;70.23;102301.94;5017844;28;20042;-66
2021/04/04 03:01:18;;;;;;;27.08;5.88;;;;;;;4.47;70.14;102299.38;5002420;28;20072;-67
2021/04/04 03:03:47;;;;;;;25.60;4.88;;;;;;;4.49;70.09;102297.72;5010697;28;20042;-67
2021/04/04 03:06:16;;;;;;;25.88;5.13;;;;;;;4.51;70.17;102303.81;5013064;28;20045;-66
2021/04/04 03:08:43;;;;;;;19.15;5.35;;;;;;;4.53;70.21;102301.25;5016380;28;20092;-67
2021/04/04 03:11:12;;;;;;;16.50;4.18;;;;;;;4.62;70.10;102309.28;5015094;28;20084;-66
2021/04/04 03:13:39;;;;;;;27.80;4.78;;;;;;;4.66;69.70;102293.94;5007934;28;20046;-65
2021/04/04 03:16:06;;;;;;;23.77;5.05;;;;;;;4.67;69.15;102289.69;5006588;28;20537;-65
2021/04/04 03:18:34;;;;;;;21.00;5.15;;;;;;;4.63;69.15;102296.47;5013609;28;20578;-65
2021/04/04 03:21:02;;;;;;;17.92;4.40;;;;;;;4.63;69.01;102298.13;5013189;28;20041;-65
2021/04/04 03:23:29;;;;;;;22.85;4.05;;;;;;;4.65;68.72;102299.94;5013340;28;20072;-65
2021/04/04 03:25:56;;;;;;;18.33;5.00;;;;;;;4.67;69.03;102287.97;5012864;28;20056;-64
2021/04/04 03:28:23;;;;;;;20.95;4.40;;;;;;;4.59;68.81;102288.59;5013192;28;20050;-66
2021/04/04 03:30:51;;;;;;;22.02;3.65;;;;;;;4.64;68.59;102294.75;5006834;28;20050;-66
2021/04/04 03:33:22;;;;;;;19.35;4.45;;;;;;;4.65;68.84;102289.63;5006669;28;20122;-65
2021/04/04 03:35:50;;;;;;;17.00;4.15;;;;;;;4.72;68.90;102287.25;5013309;28;20049;-65
2021/04/04 03:38:18;;;;;;;24.85;4.80;;;;;;;4.78;67.99;102287.41;5013566;28;20049;-65
2021/04/04 03:40:46;;;;;;;17.48;3.63;;;;;;;4.75;68.41;102289.91;5014665;28;20107;-67
2021/04/04 03:43:14;;;;;;;24.05;4.10;;;;;;;4.76;68.39;102286.50;5014278;28;20081;-66
2021/04/04 03:45:42;;;;;;;13.70;4.07;;;;;;;4.77;67.96;102288.25;5020482;28;20042;-66
2021/04/04 03:51:31;;;;;;;19.50;4.60;;;;;;;4.71;68.27;102282.91;5005201;28;20061;-67
2021/04/04 04:03:27;;;;;;;16.92;3.97;;;;;;;4.81;68.63;102269.47;4947067;28;20051;-68
2021/04/04 04:09:17;;;;;;;19.45;4.28;;;;;;;4.90;67.89;102259.44;5001726;28;20506;-66
2021/04/04 04:11:45;;;;;;;25.65;4.18;;;;;;;4.87;67.76;102261.91;5003987;28;20057;-65
2021/04/04 04:14:15;;;;;;;16.73;5.40;;;;;;;4.84;68.05;102269.56;5004329;28;20052;-65
2021/04/04 04:20:06;;;;;;;15.55;3.80;;;;;;;4.89;67.70;102264.56;5005281;28;20079;-67
2021/04/04 04:22:32;;;;;;;17.80;4.00;;;;;;;4.90;68.47;102255.97;5006686;28;20152;-66
2021/04/04 04:24:59;;;;;;;22.35;4.97;;;;;;;4.89;67.48;102261.97;5007328;28;20045;-67
2021/04/04 04:27:26;;;;;;;20.42;4.13;;;;;;;4.90;67.89;102256.84;5008839;28;20050;-66
2021/04/04 04:29:52;;;;;;;33.78;6.55;;;;;;;4.91;67.99;102258.59;4999970;28;20743;-66
2021/04/04 04:32:21;;;;;;;17.42;4.47;;;;;;;4.93;67.77;102256.06;5006579;28;20046;-65
2021/04/04 04:38:10;;;;;;;18.75;3.80;;;;;;;4.97;67.49;102248.44;4999050;28;20729;-65
2021/04/04 04:40:36;;;;;;;15.30;3.67;;;;;;;4.98;67.15;102255.34;5005424;28;20049;-65
2021/04/04 04:43:06;;;;;;;19.25;4.25;;;;;;;4.97;67.09;102240.72;5004460;28;20074;-65
2021/04/04 04:45:35;;;;;;;21.77;5.45;;;;;;;4.90;66.74;102243.97;5001736;28;20061;-65
2021/04/04 04:48:02;;;;;;;18.30;3.80;;;;;;;4.91;67.23;102240.56;5011404;28;20064;-65
2021/04/04 04:50:29;;;;;;;21.27;4.28;;;;;;;4.89;66.89;102243.91;5007334;28;20050;-66
2021/04/04 04:52:58;;;;;;;17.52;3.88;;;;;;;4.86;66.92;102247.25;4999461;28;20149;-65
2021/04/04 04:55:26;;;;;;;22.98;5.05;;;;;;;4.83;67.31;102242.91;5015152;28;20045;-65
2021/04/04 04:57:55;;;;;;;19.13;3.60;;;;;;;4.77;67.07;102247.00;5006914;28;20065;-67
2021/04/04 05:00:22;;;;;;;13.02;3.28;;;;;;;4.76;67.97;102245.25;5011756;28;20054;-67
2021/04/04 05:02:49;;;;;;;23.27;3.83;;;;;;;4.76;67.07;102237.50;5008192;28;20045;-66
2021/04/04 05:05:16;;;;;;;19.25;3.50;;;;;;;4.74;67.62;102252.09;5001344;28;20045;-68
2021/04/04 05:07:45;;;;;;;20.55;4.38;;;;;;;4.74;67.83;102249.50;5004235;28;20498;-67
2021/04/04 05:10:13;;;;;;;23.60;3.55;;;;;;;4.79;68.01;102243.63;5008410;28;20431;-66
2021/04/04 05:12:44;;;;;;;22.00;4.40;;;;;;;4.80;67.97;102252.25;5007742;28;20062;-63
2021/04/04 05:15:11;;;;;;;12.48;3.20;;;;;;;4.80;67.47;102241.94;5005029;28;20054;-67
2021/04/04 05:17:37;;;;;;;12.25;3.78;;;;;;;4.81;67.25;102248.84;5005047;28;20054;-67
2021/04/04 05:20:05;;;;;;;13.27;2.75;;;;;;;4.72;67.61;102248.59;5010863;28;20499;-65
2021/04/04 05:22:31;;;;;;;19.77;4.43;;;;;;;4.73;68.06;102248.63;5015080;28;20046;-66
2021/04/04 05:24:58;;;;;;;18.23;3.28;;;;;;;4.76;68.01;102256.44;5001583;28;20042;-68
2021/04/04 05:27:24;;;;;;;19.45;3.15;;;;;;;4.78;66.97;102249.63;5010186;28;20112;-66
2021/04/04 05:29:51;;;;;;;16.83;4.07;;;;;;;4.82;66.95;102245.44;5006264;28;20046;-67
2021/04/04 05:32:17;;;;;;;13.68;2.90;;;;;;;4.77;66.11;102257.31;5010352;28;20049;-68
2021/04/04 05:34:43;;;;;;;16.92;3.60;;;;;;;4.70;66.04;102253.66;5006911;28;20518;-66
2021/04/04 05:37:09;;;;;;;14.48;2.92;;;;;;;4.70;66.22;102252.81;5008462;28;20802;-66
2021/04/04 05:39:37;;;;;;;14.68;2.80;;;;;;;4.66;65.46;102250.13;5014144;28;20062;-67
2021/04/04 05:42:04;;;;;;;13.90;2.75;;;;;;;4.68;65.44;102247.63;5009494;28;20161;-66
2021/04/04 05:44:34;;;;;;;16.17;3.72;;;;;;;4.76;65.43;102245.25;5003415;28;20482;-67
2021/04/04 05:47:06;;;;;;;10.98;2.47;;;;;;;4.74;65.61;102245.22;5012083;23;20778;-68
2021/04/04 05:49:48;;;;;;;14.50;2.20;;;;;;;4.78;64.55;102241.00;4978601;28;20054;-68
2021/04/04 05:52:20;;;;;;;18.33;2.80;;;;;;;4.75;65.44;102236.66;4984058;28;20129;-68
2021/04/04 05:55:05;;;;;;;11.70;2.78;;;;;;;4.82;65.82;102246.31;4982481;28;20078;-68
2021/04/04 05:57:35;;;;;;;14.60;2.58;;;;;;;4.85;66.17;102247.22;4982877;28;20054;-67
2021/04/04 06:00:05;;;;;;;9.10;2.97;;;;;;;4.85;66.06;102237.78;4996078;28;20054;-68
2021/04/04 06:03:12;;;;;;;18.05;3.05;;;;;;;4.88;65.46;102237.00;4982579;28;20435;-68
2021/04/04 06:06:10;;;;;;;11.93;2.42;;;;;;;4.92;65.70;102239.72;4979716;28;20146;-68
2021/04/04 06:09:00;;;;;;;12.82;2.30;;;;;;;4.98;66.02;102241.59;4968135;28;20058;-68
2021/04/04 06:11:31;;;;;;;11.95;2.70;;;;;;;5.04;65.46;102238.31;4989676;28;20047;-68
2021/04/04 06:14:06;;;;;;;14.00;2.90;;;;;;;5.13;65.54;102236.84;4982045;28;20046;-68
2021/04/04 06:16:41;;;;;;;17.25;3.85;;;;;;;5.23;65.59;102243.16;4986463;28;20050;-68
2021/04/04 06:19:16;;;;;;;14.45;2.50;;;;;;;5.29;65.17;102242.44;4979903;28;20563;-68
2021/04/04 06:21:48;;;;;;;;;;;;;;;5.27;65.46;102244.13;4985842;28;20054;-67
2021/04/04 06:24:22;;;;;;;16.38;2.50;;;;;;;5.31;65.68;102234.75;4987255;28;19929;-68
2021/04/04 06:26:59;;;;;;;15.57;2.33;;;;;;;5.37;65.31;102235.78;4978904;28;20078;-68
2021/04/04 06:29:31;;;;;;;12.95;2.53;;;;;;;5.41;65.48;102237.59;4981078;28;20423;-68
2021/04/04 06:32:06;;;;;;;13.43;2.35;;;;;;;5.44;65.04;102241.97;4976480;28;20058;-68
2021/04/04 06:34:40;;;;;;;17.08;4.43;;;;;;;5.37;64.96;102230.63;4983915;28;20194;-69
2021/04/04 06:37:31;;;;;;;12.85;3.20;;;;;;;5.38;65.52;102231.47;4989176;28;20112;-68
2021/04/04 06:40:07;;;;;;;15.50;2.83;;;;;;;5.42;64.88;102233.31;4986965;28;20105;-69
2021/04/04 06:42:51;;;;;;;16.42;2.90;;;;;;;5.37;65.62;102225.47;4984633;28;20050;-68
2021/04/04 06:45:28;;;;;;;15.13;2.60;;;;;;;5.37;65.30;102228.03;4993666;28;20054;-68
2021/04/04 06:48:24;;;;;;;19.70;3.30;;;;;;;5.41;65.95;102232.44;4980969;28;20062;-68
2021/04/04 06:50:55;;;;;;;16.92;3.60;;;;;;;5.42;65.57;102241.06;4980171;28;20475;-69
2021/04/04 06:53:31;;;;;;;16.27;4.25;;;;;;;5.35;65.40;102237.44;4983289;28;20046;-68
2021/04/04 06:56:03;;;;;;;18.58;3.28;;;;;;;5.42;65.97;102236.75;4990107;28;20053;-68
2021/04/04 06:58:58;;;;;;;18.95;3.08;;;;;;;5.44;65.76;102245.44;4993264;28;20050;-68
2021/04/04 07:01:35;;;;;;;28.17;3.97;;;;;;;5.42;66.00;102247.09;4978271;28;20130;-68
2021/04/04 07:04:06;;;;;;;18.63;3.00;;;;;;;5.50;66.10;102251.56;4981416;28;20082;-67
2021/04/04 07:07:04;;;;;;;22.95;4.70;;;;;;;5.60;66.35;102243.22;4983603;28;20047;-67
2021/04/04 07:09:55;;;;;;;16.38;3.22;;;;;;;5.58;65.91;102240.63;4979947;28;20173;-67
2021/04/04 07:12:39;;;;;;;20.73;3.05;;;;;;;5.69;65.49;102242.59;4986471;28;20508;-67
2021/04/04 07:15:14;;;;;;;16.63;3.42;;;;;;;5.69;65.26;102240.03;4993945;28;20053;-68
2021/04/04 07:18:19;;;;;;;20.40;3.03;;;;;;;5.74;65.01;102238.41;4984761;28;20077;-69
2021/04/04 07:20:59;;;;;;;16.50;3.53;;;;;;;5.73;65.01;102239.28;4933902;29;20433;-68
2021/04/04 07:23:45;;;;;;;15.52;3.38;;;;;;;5.78;65.52;102231.66;4979689;28;20077;-66
2021/04/04 07:26:26;;;;;;;11.57;2.80;;;;;;;5.91;64.91;102229.41;4987753;28;20074;-68
2021/04/04 07:29:12;;;;;;;20.73;3.72;;;;;;;5.95;64.56;102234.63;4987111;28;20081;-67
2021/04/04 07:31:44;;;;;;;21.48;3.88;;;;;;;5.95;64.67;102234.63;4990815;28;20054;-67
2021/04/04 07:34:15;;;;;;;13.70;4.00;;;;;;;5.90;64.92;102232.81;4988551;28;20058;-68
2021/04/04 07:36:50;;;;;;;12.82;3.58;;;;;;;5.72;65.13;102228.06;4977260;28;20042;-68
2021/04/04 07:39:28;;;;;;;19.45;3.08;;;;;;;5.70;65.78;102231.44;4990817;28;20050;-66
2021/04/04 07:42:01;;;;;;;14.85;3.17;;;;;;;5.77;65.26;102230.75;4985607;28;20512;-68
2021/04/04 07:44:34;;;;;;;19.73;3.13;;;;;;;5.82;65.32;102231.75;4986741;28;20050;-68
2021/04/04 07:47:05;;;;;;;14.98;3.10;;;;;;;5.81;65.20;102234.28;4989424;28;20053;-66
2021/04/04 07:49:37;;;;;;;16.15;3.33;;;;;;;5.85;65.27;102231.81;4991756;28;20050;-69
2021/04/04 07:52:10;;;;;;;16.73;3.50;;;;;;;5.85;64.74;102229.22;4993654;28;20054;-67
2021/04/04 07:54:52;;;;;;;13.38;3.55;;;;;;;5.84;65.12;102232.66;4984184;28;20078;-68
2021/04/04 07:57:22;;;;;;;15.45;2.53;;;;;;;5.86;64.72;102232.72;4986462;28;20046;-68
2021/04/04 07:59:50;;;;;;;15.38;3.22;;;;;;;5.83;65.60;102236.09;4982724;28;20054;-67
2021/04/04 08:02:21;;;;;;;16.70;3.13;;;;;;;5.83;65.70;102236.09;4980811;28;20053;-65
2021/04/04 08:04:50;;;;;;;12.98;2.70;;;;;;;5.91;64.64;102241.44;4985881;28;20050;-67
2021/04/04 08:07:22;;;;;;;14.23;2.63;;;;;;;5.94;63.84;102236.34;4997474;28;20046;-68
2021/04/04 08:09:57;;;;;;;12.50;2.50;;;;;;;5.95;63.66;102232.94;4982946;28;20054;-68
2021/04/04 08:12:35;;;;;;;8.00;2.45;;;;;;;6.03;63.50;102234.00;4984552;28;20046;-66
2021/04/04 08:15:05;;;;;;;11.40;2.40;;;;;;;6.01;64.67;102245.16;4989360;28;20058;-68
2021/04/04 08:17:34;;;;;;;12.55;2.80;;;;;;;6.12;63.61;102237.66;4986192;28;20081;-67
2021/04/04 08:20:03;;;;;;;10.95;3.00;;;;;;;6.10;62.24;102240.19;4987082;28;20042;-68
2021/04/04 08:22:33;;;;;;;11.57;2.25;;;;;;;5.94;62.84;102240.66;4981086;28;20050;-66
2021/04/04 08:25:05;;;;;;;11.07;2.60;;;;;;;6.01;62.96;102240.00;4988030;28;20066;-68
2021/04/04 08:27:34;;;;;;;12.63;2.25;;;;;;;6.04;62.19;102233.19;4987695;28;20050;-68
2021/04/04 08:30:08;;;;;;;8.00;1.70;;;;;;;6.20;61.53;102237.00;4981625;28;20093;-68
2021/04/04 08:32:42;;;;;;;9.38;2.05;;;;;;;6.26;62.14;102240.53;4981637;28;20050;-68
2021/04/04 08:35:13;;;;;;;8.68;1.50;;;;;;;6.34;61.34;102237.31;4986478;28;20054;-67
2021/04/04 08:37:43;;;;;;;10.77;1.90;;;;;;;6.30;60.75;102238.06;4985624;28;20101;-65
2021/04/04 08:40:14;;;;;;;9.63;1.42;;;;;;;6.22;60.84;102245.66;4991530;28;20444;-65
2021/04/04 08:42:42;;;;;;;7.38;2.00;;;;;;;6.22;60.85;102243.09;4985818;28;20051;-68
2021/04/04 08:45:13;;;;;;;6.63;1.80;;;;;;;6.36;61.61;102242.50;4984969;28;20065;-66
2021/04/04 08:47:43;;;;;;;12.30;2.25;;;;;;;6.33;61.36;102247.63;4988315;28;20410;-68
2021/04/04 08:50:12;;;;;;;8.60;1.75;;;;;;;6.37;61.44;102239.97;4985160;28;20050;-68
2021/04/04 08:52:44;;;;;;;11.25;1.70;;;;;;;6.35;61.44;102238.16;4983478;28;20057;-66
2021/04/04 08:55:16;;;;;;;10.52;1.98;;;;;;;6.37;61.88;102236.50;5000973;28;20054;-67
2021/04/04 08:57:45;;;;;;;10.73;2.17;;;;;;;6.50;61.62;102246.28;4986358;28;20046;-68
2021/04/04 09:00:14;;;;;;;8.30;2.05;;;;;;;6.49;62.08;102249.69;4987963;28;20053;-67
2021/04/04 09:02:55;;;;;;;11.70;1.70;;;;;;;6.38;62.65;102246.91;4981695;28;20508;-67
2021/04/04 09:05:25;;;;;;;12.88;2.17;;;;;;;6.38;63.08;102240.84;4986620;28;20053;-68
2021/04/04 09:07:55;;;;;;;11.60;1.98;;;;;;;6.34;63.27;102244.16;4986050;28;20141;-68
2021/04/04 09:10:23;;;;;;;14.57;2.58;;;;;;;6.36;63.14;102238.22;4985162;28;20050;-64
2021/04/04 09:12:50;;;;;;;10.15;2.53;;;;;;;6.33;62.84;102237.28;4981427;28;20641;-68
2021/04/04 09:15:17;;;;;;;10.35;2.72;;;;;;;6.27;63.62;102238.03;4982355;28;20102;-67
2021/04/04 09:17:51;;;;;;;10.57;3.50;;;;;;;6.27;62.96;102238.03;4981660;28;20050;-68
2021/04/04 09:20:18;;;;;;;12.88;3.13;;;;;;;6.26;63.52;102231.09;4985929;28;20109;-66
2021/04/04 09:22:48;;;;;;;13.00;2.38;;;;;;;6.50;62.76;102237.63;4989102;28;20052;-68
2021/04/04 09:25:16;;;;;;;8.35;1.80;;;;;;;6.56;63.05;102239.50;4982459;28;20054;-66
2021/04/04 09:27:44;;;;;;;8.75;2.53;;;;;;;6.52;62.38;102242.03;4984131;28;20535;-66
2021/04/04 09:30:22;;;;;;;8.20;2.20;;;;;;;6.64;61.99;102232.75;4986286;28;20042;-66
2021/04/04 09:32:52;;;;;;;13.15;2.40;;;;;;;6.73;61.39;102245.91;4987969;28;20057;-65
2021/04/04 09:35:20;;;;;;;11.77;2.17;;;;;;;6.75;61.38;102236.44;4980415;28;20050;-67
2021/04/04 09:37:47;;;;;;;12.30;2.42;;;;;;;6.80;61.00;102233.97;4983458;28;20641;-68
2021/04/04 09:40:14;;;;;;;12.30;2.10;;;;;;;6.72;60.63;102226.06;4977708;28;20058;-68
2021/04/04 09:42:41;;;;;;;10.98;2.72;;;;;;;6.64;60.93;102235.34;4988146;28;20061;-67
2021/04/04 09:45:16;;;;;;;9.68;2.40;;;;;;;6.68;60.87;102232.00;4981718;28;20054;-68
2021/04/04 09:47:42;;;;;;;;;;;;;;;6.65;60.11;102221.59;4984387;28;20050;-68
2021/04/04 09:50:23;;;;;;;10.05;2.75;;;;;;;6.54;60.53;102226.53;4981253;28;19928;-68
2021/04/04 09:52:49;;;;;;;11.90;2.72;;;;;;;6.58;60.29;102217.13;4981356;28;20046;-68
2021/04/04 09:55:18;;;;;;;8.45;2.58;;;;;;;6.50;61.27;102217.84;4980836;28;20046;-67
2021/04/04 09:57:45;;;;;;;11.52;2.72;;;;;;;6.48;61.53;102219.53;4985344;28;20672;-67
2021/04/04 10:00:18;;;;;;;15.23;3.03;;;;;;;6.50;61.63;102215.25;4984853;28;20058;-64
2021/04/04 10:02:44;;;;;;;12.65;3.20;;;;;;;6.51;61.79;102208.38;4977576;28;20051;-66
2021/04/04 10:05:10;;;;;;;11.95;2.67;;;;;;;6.57;61.27;102207.63;4984334;28;20043;-66
2021/04/04 10:07:36;;;;;;;8.55;2.60;;;;;;;6.64;62.08;102206.91;4984511;28;20338;-70
2021/04/04 10:10:05;;;;;;;15.52;3.55;;;;;;;6.81;61.64;102205.56;4981556;28;20050;-67
2021/04/04 10:12:54;;;;;;;11.95;2.17;;;;;;;6.93;60.41;102204.94;4985824;28;20197;-65
2021/04/04 10:15:21;;;;;;;13.30;2.75;;;;;;;6.92;60.16;102202.31;4995345;28;20054;-67
2021/04/04 10:17:53;;;;;;;10.93;2.35;;;;;;;6.99;60.12;102194.69;4985175;28;20047;-67
2021/04/04 10:20:30;;;;;;;8.02;2.60;;;;;;;7.14;59.80;102182.91;4985865;28;20073;-66
2021/04/04 10:22:56;;;;;;;13.40;2.38;;;;;;;7.34;59.39;102185.81;4993164;28;20077;-66
2021/04/04 10:25:22;;;;;;;8.82;2.40;;;;;;;7.33;58.57;102189.28;4984382;28;20046;-67
2021/04/04 10:27:56;;;;;;;8.27;2.20;;;;;;;7.32;58.36;102184.94;4989071;28;20500;-67
2021/04/04 10:30:27;;;;;;;12.70;3.03;;;;;;;7.21;58.46;102191.66;4983919;28;20043;-67
2021/04/04 10:32:53;;;;;;;6.97;1.70;;;;;;;7.21;58.15;102194.22;4984252;28;20124;-67
2021/04/04 10:35:29;;;;;;;8.63;1.80;;;;;;;7.27;58.65;102182.28;4992419;28;20061;-69
2021/04/04 10:38:02;;;;;;;12.65;1.77;;;;;;;7.20;58.01;102189.91;4982126;28;20047;-68
2021/04/04 10:40:40;;;;;;;6.72;1.50;;;;;;;7.23;58.43;102182.19;4984785;28;20050;-67
2021/04/04 10:43:07;;;;;;;7.05;1.55;;;;;;;7.19;58.58;102176.06;4982006;28;20046;-68
2021/04/04 10:45:34;;;;;;;10.57;1.75;;;;;;;7.36;58.22;102171.19;4987699;28;20053;-68
2021/04/04 10:48:06;;;;;;;9.07;2.03;;;;;;;7.42;57.79;102168.72;4987347;28;20423;-68
2021/04/04 10:50:32;;;;;;;7.68;1.88;;;;;;;7.33;57.92;102171.16;4988273;28;20397;-68
2021/04/04 10:52:58;;;;;;;8.18;1.70;;;;;;;7.46;57.17;102167.94;4995025;28;20053;-68
2021/04/04 10:55:25;;;;;;;6.40;1.65;;;;;;;7.57;57.41;102169.81;4990897;28;20047;-68
2021/04/04 10:57:51;;;;;;;8.80;2.58;;;;;;;7.75;56.20;102164.06;4994134;28;20148;-66
2021/04/04 11:00:18;;;;;;;10.57;2.20;;;;;;;7.80;55.90;102154.63;4991076;28;20058;-67
2021/04/04 11:02:46;;;;;;;10.50;2.47;;;;;;;7.86;55.78;102153.88;4992720;28;20571;-68
2021/04/04 11:05:13;;;;;;;11.25;1.80;;;;;;;8.03;55.41;102146.34;4995402;28;20538;-68
2021/04/04 11:07:40;;;;;;;6.57;1.80;;;;;;;8.04;54.71;102143.75;4989068;28;20051;-68
2021/04/04 11:10:09;;;;;;;9.48;1.83;;;;;;;8.06;55.61;102141.22;4991814;28;20405;-66
2021/04/04 11:12:38;;;;;;;14.18;2.08;;;;;;;8.12;55.60;102136.09;4991594;28;20117;-69
2021/04/04 11:15:08;;;;;;;14.60;2.45;;;;;;;8.29;56.17;102135.44;4982809;28;20042;-68
2021/04/04 11:28:25;;;;;;;11.35;2.65;;;;;;;8.63;53.56;102123.81;4982085;28;20061;-69
2021/04/04 11:30:54;;;;;;;14.45;2.83;;;;;;;8.62;54.06;102116.88;4991222;28;20062;-68
2021/04/04 11:37:05;;;;;;;11.45;3.40;;;;;;;8.68;54.53;102114.34;4977843;28;20112;-67
2021/04/04 11:46:48;;;;;;;11.48;3.17;;;;;;;8.88;53.23;102095.53;4985538;28;20053;-67
2021/04/04 11:49:38;;;;;;;7.45;1.90;;;;;;;8.88;52.84;102095.53;4988868;28;20050;-69
2021/04/04 11:52:40;;;;;;;8.95;2.33;;;;;;;8.78;53.51;102091.97;4988127;28;20499;-68
2021/04/04 11:55:08;;;;;;;9.20;2.00;;;;;;;8.82;53.20;102093.72;4964824;28;20053;-67
2021/04/04 11:57:36;;;;;;;8.13;2.38;;;;;;;8.99;52.60;102082.63;4980848;28;20097;-66
2021/04/04 12:00:07;;;;;;;9.68;2.30;;;;;;;9.14;52.88;102081.91;4981079;28;22573;-69
2021/04/04 12:02:35;;;;;;;8.00;2.10;;;;;;;9.01;52.76;102081.81;4985105;28;20046;-70
2021/04/04 12:05:06;;;;;;;13.95;2.40;;;;;;;9.06;52.05;102078.38;4987474;28;20050;-69
2021/04/04 12:07:33;;;;;;;13.95;2.78;;;;;;;8.98;52.77;102074.00;4985645;28;20062;-68
2021/04/04 12:10:00;;;;;;;15.50;2.75;;;;;;;9.01;52.94;102061.06;4976027;28;20057;-66
2021/04/04 12:12:34;;;;;;;10.73;2.58;;;;;;;8.94;53.33;102059.25;4979082;28;20508;-69
2021/04/04 12:15:01;;;;;;;13.60;2.33;;;;;;;8.92;52.80;102055.78;4985029;28;20047;-70
2021/04/04 12:17:28;;;;;;;12.20;3.08;;;;;;;8.92;53.39;102047.13;4984938;28;20047;-69
2021/04/04 12:19:56;;;;;;;9.10;2.45;;;;;;;9.17;54.29;102054.28;4987246;28;20058;-69
2021/04/04 12:22:34;;;;;;;10.75;2.53;;;;;;;9.48;52.51;102043.22;4987484;28;20050;-69
2021/04/04 12:25:01;;;;;;;12.50;2.58;;;;;;;9.56;51.79;102036.34;4984983;28;20042;-68
2021/04/04 12:27:28;;;;;;;11.38;2.83;;;;;;;9.46;52.59;102040.63;4986125;28;20042;-69
2021/04/04 12:34:08;;;;;;;9.63;2.42;;;;;;;9.51;51.92;102032.84;4980091;28;20081;-67